Time;durP1;ratioP1;P1;durP2;ratioP2;P2;SDS_P1;SDS_P2;PMS_P1;PMS_P2;Temp;Humidity;BMP_temperature;BMP_pressure;BME280_temperature;BME280_humidity;BME280_pressure;Samples;Min_cycle;Max_cycle;Signal;HPM_P1;HPM_P2
2022/12/21 00:00:10;;;;;;;22.60;14.65;;;12.20;82.90;;;;;;2628207;51;21130;-47
2022/12/21 00:02:39;;;;;;;21.80;14.35;;;12.20;83.00;;;;;;2374721;56;21047;-47
2022/12/21 00:05:08;;;;;;;20.00;14.80;;;12.20;82.90;;;;;;2374982;56;21071;-47
2022/12/21 00:07:35;;;;;;;23.45;15.57;;;12.20;82.80;;;;;;2375297;56;21748;-49
2022/12/21 00:10:03;;;;;;;23.35;14.63;;;12.30;82.80;;;;;;2374582;56;21728;-48
2022/12/21 00:12:31;;;;;;;20.70;14.30;;;12.20;82.60;;;;;;2374321;56;21576;-46
2022/12/21 00:14:58;;;;;;;22.15;14.43;;;12.20;82.60;;;;;;2374414;56;21067;-47
2022/12/21 00:17:25;;;;;;;22.58;15.10;;;12.20;82.70;;;;;;2374006;56;21051;-47
2022/12/21 00:19:52;;;;;;;18.70;13.15;;;12.30;82.70;;;;;;2374203;56;21058;-48
2022/12/21 00:22:19;;;;;;;21.23;14.32;;;12.20;82.60;;;;;;2374638;56;21590;-48
2022/12/21 00:24:46;;;;;;;25.52;15.40;;;12.20;82.50;;;;;;2374303;56;21050;-49
2022/12/21 00:27:13;;;;;;;24.45;14.55;;;12.30;82.50;;;;;;2374161;56;21067;-50
2022/12/21 00:29:40;;;;;;;22.70;15.05;;;12.30;82.40;;;;;;2374062;56;21082;-47
2022/12/21 00:32:07;;;;;;;22.83;15.23;;;12.30;82.40;;;;;;2373978;56;21047;-49
2022/12/21 00:34:35;;;;;;;21.87;14.85;;;12.30;82.40;;;;;;2628208;52;21530;-47
2022/12/21 00:37:03;;;;;;;23.58;15.10;;;12.30;82.40;;;;;;2374491;56;21042;-50
2022/12/21 00:39:30;;;;;;;24.37;15.60;;;12.30;82.40;;;;;;2374590;56;21050;-49
2022/12/21 00:41:57;;;;;;;19.05;14.10;;;12.30;82.40;;;;;;2373967;56;21051;-50
2022/12/21 00:44:24;;;;;;;23.92;15.15;;;12.30;82.40;;;;;;2373922;56;22194;-48
2022/12/21 00:46:51;;;;;;;21.02;14.70;;;12.30;82.40;;;;;;2374353;56;22557;-49
2022/12/21 00:49:19;;;;;;;21.33;14.95;;;12.30;82.40;;;;;;2374776;56;21051;-48
2022/12/21 00:51:46;;;;;;;21.73;14.93;;;12.30;82.50;;;;;;2373936;56;21035;-48
2022/12/21 00:54:13;;;;;;;24.52;15.25;;;12.30;82.50;;;;;;2627666;51;21090;-47
2022/12/21 00:56:40;;;;;;;20.00;13.25;;;12.40;82.50;;;;;;2374586;56;21035;-50
2022/12/21 00:59:07;;;;;;;16.52;12.00;;;12.40;82.40;;;;;;2374917;56;21050;-48
2022/12/21 01:01:35;;;;;;;22.52;12.90;;;12.30;82.10;;;;;;2374906;56;21043;-47
2022/12/21 01:04:03;;;;;;;17.98;11.45;;;12.30;82.10;;;;;;2374206;56;21027;-48
2022/12/21 01:06:33;;;;;;;16.33;11.52;;;12.40;82.20;;;;;;2374611;56;21086;-47
2022/12/21 01:09:01;;;;;;;17.50;10.88;;;12.30;82.10;;;;;;2374902;56;21071;-50
2022/12/21 01:11:28;;;;;;;13.18;9.18;;;12.40;82.10;;;;;;2374415;56;21110;-48
2022/12/21 01:13:56;;;;;;;13.38;8.95;;;12.40;82.10;;;;;;2374097;56;21038;-48
2022/12/21 01:16:26;;;;;;;11.18;8.50;;;12.40;82.00;;;;;;2373632;56;21531;-51
2022/12/21 01:18:53;;;;;;;10.90;7.80;;;12.30;82.00;;;;;;2375263;56;21488;-49
2022/12/21 01:21:22;;;;;;;11.40;7.95;;;12.30;81.90;;;;;;2629637;52;21003;-48
2022/12/21 01:23:49;;;;;;;10.75;8.02;;;12.30;82.10;;;;;;2375291;56;21058;-49
2022/12/21 01:26:17;;;;;;;12.15;8.32;;;12.30;82.10;;;;;;2375794;56;21031;-50
2022/12/21 01:28:44;;;;;;;10.77;7.78;;;12.30;82.10;;;;;;2375073;56;21023;-50
2022/12/21 01:31:12;;;;;;;11.38;8.50;;;12.30;82.10;;;;;;2375623;56;21507;-48
2022/12/21 01:33:39;;;;;;;12.50;8.45;;;12.30;82.10;;;;;;2373478;56;21555;-49
2022/12/21 01:36:09;;;;;;;12.90;8.98;;;12.30;82.00;;;;;;2374226;56;21122;-47
2022/12/21 01:38:39;;;;;;;11.48;8.57;;;12.30;82.00;;;;;;2374740;56;21031;-48
2022/12/21 01:41:06;;;;;;;12.55;8.85;;;12.40;82.00;;;;;;2374336;56;21050;-48
2022/12/21 01:43:48;;;;;;;14.10;9.48;;;12.40;82.10;;;;;;2374225;56;21698;-51
2022/12/21 01:46:22;;;;;;;13.98;9.52;;;12.30;82.10;;;;;;2374579;56;21633;-47
2022/12/21 01:48:51;;;;;;;;;;;12.30;82.00;;;;;;2378492;56;21543;-50
2022/12/21 01:51:18;;;;;;;12.30;8.23;;;12.40;82.00;;;;;;2374423;56;20352;-47
2022/12/21 01:53:51;;;;;;;11.93;8.10;;;12.40;81.50;;;;;;2374531;56;21035;-48
2022/12/21 01:56:22;;;;;;;13.80;9.30;;;12.30;81.70;;;;;;2374775;56;21621;-48
2022/12/21 01:58:49;;;;;;;12.68;9.10;;;12.30;81.80;;;;;;2374477;56;21598;-47
2022/12/21 02:01:17;;;;;;;13.23;8.50;;;12.30;82.00;;;;;;2374302;56;22105;-47
2022/12/21 02:03:48;;;;;;;10.65;7.53;;;12.30;81.90;;;;;;2373740;56;21189;-49
2022/12/21 02:06:20;;;;;;;8.88;6.35;;;12.30;81.90;;;;;;2374882;56;21051;-48
2022/12/21 02:08:48;;;;;;;12.43;7.82;;;12.30;81.70;;;;;;2374100;56;21043;-47
2022/12/21 02:11:16;;;;;;;11.98;8.38;;;12.30;81.60;;;;;;2375967;56;21019;-47
2022/12/21 02:13:43;;;;;;;8.52;6.25;;;12.30;81.60;;;;;;2375614;56;21570;-49
2022/12/21 02:16:18;;;;;;;11.60;8.32;;;12.40;81.70;;;;;;2375062;56;21512;-48
2022/12/21 02:19:03;;;;;;;13.70;8.65;;;12.40;81.70;;;;;;2375695;56;21077;-49
2022/12/21 02:21:34;;;;;;;13.25;9.13;;;12.30;81.60;;;;;;2375578;56;21145;-51
2022/12/21 02:24:35;;;;;;;12.50;7.65;;;12.30;81.50;;;;;;2374122;56;21056;-49
2022/12/21 02:27:25;;;;;;;15.48;9.43;;;12.30;81.60;;;;;;2373637;56;21535;-47
2022/12/21 02:30:18;;;;;;;13.23;8.55;;;12.30;81.50;;;;;;2374206;56;22189;-48
2022/12/21 02:32:59;;;;;;;10.38;7.03;;;12.30;81.50;;;;;;2374061;56;22110;-48
2022/12/21 02:35:41;;;;;;;12.50;7.37;;;12.30;81.20;;;;;;2372381;56;21542;-49
2022/12/21 02:38:20;;;;;;;11.95;7.87;;;12.30;81.10;;;;;;2373828;56;21023;-50
2022/12/21 02:40:56;;;;;;;10.68;7.10;;;12.30;81.00;;;;;;2374876;56;21109;-48
2022/12/21 02:49:11;;;;;;;14.30;8.82;;;12.30;80.90;;;;;;2321665;57;28567;-47
2022/12/21 02:51:43;;;;;;;12.88;8.55;;;12.00;82.90;;;;;;2346637;57;21613;-49
2022/12/21 02:54:12;;;;;;;12.60;8.18;;;12.20;83.00;;;;;;2333453;52;21078;-62
2022/12/21 02:56:39;;;;;;;11.35;7.95;;;12.20;81.40;;;;;;2300604;58;21625;-64
2022/12/21 02:59:09;;;;;;;14.65;9.38;;;12.30;81.00;;;;;;2300983;58;21133;-64
2022/12/21 03:01:58;;;;;;;14.90;8.88;;;12.30;80.70;;;;;;2300797;58;21058;-64
2022/12/21 03:04:58;;;;;;;15.48;9.48;;;12.30;80.60;;;;;;2300948;58;21644;-63
2022/12/21 03:07:40;;;;;;;15.18;10.07;;;12.30;80.30;;;;;;2300618;58;21108;-64
2022/12/21 03:12:57;;;;;;;16.37;9.70;;;12.30;80.30;;;;;;2346314;57;22051;-62
2022/12/21 03:15:40;;;;;;;14.68;9.82;;;12.30;80.40;;;;;;2347135;57;21663;-64
2022/12/21 03:18:18;;;;;;;18.73;10.82;;;12.20;80.50;;;;;;2358197;53;21549;-63
2022/12/21 03:20:56;;;;;;;14.48;9.50;;;12.20;80.40;;;;;;2353924;53;21632;-64
2022/12/21 03:23:31;;;;;;;15.98;10.18;;;12.20;80.40;;;;;;2346375;57;22223;-64
2022/12/21 03:26:04;;;;;;;17.65;10.40;;;12.20;80.40;;;;;;2346688;57;21952;-63
2022/12/21 03:28:34;;;;;;;17.93;10.83;;;12.20;80.40;;;;;;2346189;57;21509;-63
2022/12/21 03:31:05;;;;;;;16.12;10.05;;;12.20;80.50;;;;;;2422982;53;21838;-63
2022/12/21 03:33:38;;;;;;;20.48;10.57;;;12.20;80.60;;;;;;2347667;57;21533;-64
2022/12/21 03:36:09;;;;;;;15.13;9.60;;;12.20;80.60;;;;;;2347356;57;21513;-63
2022/12/21 03:38:41;;;;;;;19.95;10.23;;;12.10;80.50;;;;;;2346728;57;21093;-63
2022/12/21 03:41:13;;;;;;;18.25;10.82;;;12.10;80.50;;;;;;2347220;57;21577;-63
2022/12/21 03:43:42;;;;;;;16.30;9.43;;;12.10;80.40;;;;;;2347138;57;21038;-63
2022/12/21 03:46:14;;;;;;;17.35;10.85;;;12.10;80.40;;;;;;2345937;57;21097;-63
2022/12/21 03:48:47;;;;;;;21.83;11.15;;;12.10;80.40;;;;;;2347071;57;21573;-63
2022/12/21 03:51:20;;;;;;;22.93;10.37;;;12.10;80.40;;;;;;2348581;57;21121;-63
2022/12/21 03:53:52;;;;;;;16.12;9.57;;;12.10;80.40;;;;;;2348056;57;21729;-64
2022/12/21 03:58:56;;;;;;;17.20;10.30;;;12.10;80.30;;;;;;2351317;57;22038;-62
2022/12/21 04:01:38;;;;;;;18.83;10.02;;;12.10;80.10;;;;;;2347152;57;21916;-64
2022/12/21 04:04:10;;;;;;;17.23;9.82;;;12.00;80.20;;;;;;2345269;57;21050;-63
2022/12/21 04:06:40;;;;;;;19.30;9.98;;;12.10;80.30;;;;;;2345775;57;21129;-63
2022/12/21 04:09:08;;;;;;;16.85;9.20;;;12.00;80.20;;;;;;2345595;57;21030;-64
2022/12/21 04:14:22;;;;;;;17.55;9.70;;;12.10;80.30;;;;;;2345116;53;21505;-64
2022/12/21 04:16:49;;;;;;;16.65;9.45;;;12.00;80.20;;;;;;2345289;57;21128;-63
2022/12/21 04:22:02;;;;;;;18.20;9.27;;;12.00;80.20;;;;;;2345762;53;20986;-63
2022/12/21 04:30:01;;;;;;;16.50;9.40;;;11.80;80.30;;;;;;2344919;53;20998;-61
2022/12/21 04:32:28;;;;;;;17.15;9.30;;;11.80;80.40;;;;;;2344386;57;21058;-62
2022/12/21 04:34:55;;;;;;;17.87;9.00;;;11.80;80.60;;;;;;2345737;57;21041;-63
2022/12/21 04:37:31;;;;;;;19.05;8.70;;;11.80;80.50;;;;;;2345387;57;21106;-64
2022/12/21 04:39:58;;;;;;;14.82;8.38;;;11.80;80.40;;;;;;2345222;57;21049;-62
2022/12/21 04:42:25;;;;;;;17.42;8.75;;;11.80;80.30;;;;;;2345213;57;21121;-61
2022/12/21 04:44:52;;;;;;;15.60;7.57;;;11.80;80.40;;;;;;2345420;57;21635;-64
2022/12/21 04:47:20;;;;;;;15.50;8.23;;;11.80;80.50;;;;;;2345066;57;21159;-63
2022/12/21 04:49:47;;;;;;;16.60;8.70;;;11.80;80.50;;;;;;2346294;57;21506;-63
2022/12/21 04:52:14;;;;;;;18.77;9.35;;;11.80;80.50;;;;;;2346633;57;21023;-64
2022/12/21 04:54:42;;;;;;;14.50;8.05;;;11.80;80.50;;;;;;2345458;57;21045;-64
2022/12/21 04:57:09;;;;;;;16.98;9.27;;;11.80;80.50;;;;;;2345189;57;21652;-62
2022/12/21 04:59:36;;;;;;;19.58;9.25;;;11.70;80.40;;;;;;2345571;57;21042;-64
2022/12/21 05:02:03;;;;;;;16.90;8.73;;;11.70;81.30;;;;;;2343612;57;22115;-63
2022/12/21 05:04:30;;;;;;;19.90;9.45;;;11.70;80.40;;;;;;2345537;57;21022;-64
2022/12/21 05:06:57;;;;;;;20.85;9.57;;;11.70;80.50;;;;;;2344580;57;21050;-63
2022/12/21 05:09:25;;;;;;;17.08;9.13;;;11.70;80.50;;;;;;2345047;57;21086;-63
2022/12/21 05:11:52;;;;;;;18.08;8.75;;;11.80;80.60;;;;;;2344838;57;21045;-63
2022/12/21 05:14:19;;;;;;;18.27;8.52;;;11.70;81.30;;;;;;2343170;57;21664;-62
2022/12/21 05:16:47;;;;;;;16.00;7.93;;;11.70;80.60;;;;;;2359922;53;21038;-62
2022/12/21 05:19:15;;;;;;;12.07;7.35;;;11.70;80.40;;;;;;2344169;57;21692;-63
2022/12/21 05:21:42;;;;;;;17.98;8.75;;;11.70;80.40;;;;;;2344452;57;22148;-63
2022/12/21 05:24:10;;;;;;;14.07;7.93;;;11.70;81.10;;;;;;2343228;57;21050;-63
2022/12/21 05:26:37;;;;;;;18.45;8.63;;;11.70;80.40;;;;;;2344135;57;21045;-64
2022/12/21 05:29:04;;;;;;;19.42;10.48;;;11.70;81.00;;;;;;2344265;57;21046;-63
2022/12/21 05:31:31;;;;;;;17.80;8.88;;;11.70;80.20;;;;;;2343901;57;21140;-64
2022/12/21 05:33:59;;;;;;;21.50;9.80;;;11.70;80.10;;;;;;2341783;57;21518;-64
2022/12/21 05:36:26;;;;;;;18.25;8.77;;;11.70;80.10;;;;;;2344551;57;21189;-63
2022/12/21 05:38:55;;;;;;;14.13;7.97;;;11.80;80.20;;;;;;2344636;57;21289;-62
2022/12/21 05:41:22;;;;;;;14.95;8.13;;;11.80;80.00;;;;;;2345576;57;21522;-63
2022/12/21 05:43:49;;;;;;;19.50;9.63;;;11.70;79.90;;;;;;2345274;57;21034;-63
2022/12/21 05:46:16;;;;;;;19.83;9.75;;;11.70;79.80;;;;;;2345806;57;21030;-63
2022/12/21 05:48:43;;;;;;;17.85;9.90;;;11.70;79.70;;;;;;2344110;57;21093;-63
2022/12/21 05:51:12;;;;;;;18.73;10.18;;;11.70;79.70;;;;;;2344524;57;21539;-61
2022/12/21 05:53:42;;;;;;;17.80;10.32;;;11.70;79.80;;;;;;2344619;57;21061;-61
2022/12/21 05:56:09;;;;;;;19.20;10.07;;;11.70;79.80;;;;;;2343882;57;21542;-63
2022/12/21 05:58:37;;;;;;;22.00;10.63;;;11.70;79.70;;;;;;2344384;57;21582;-63
2022/12/21 06:01:06;;;;;;;21.60;9.70;;;11.70;79.70;;;;;;2357147;53;21609;-63
2022/12/21 06:03:33;;;;;;;21.00;9.75;;;11.60;79.40;;;;;;2345255;57;21612;-61
2022/12/21 06:06:06;;;;;;;18.33;9.23;;;11.60;79.40;;;;;;2344138;57;21058;-63
2022/12/21 06:08:34;;;;;;;18.25;9.38;;;11.60;79.40;;;;;;2343476;57;21538;-64
2022/12/21 06:11:07;;;;;;;18.58;8.38;;;11.60;79.30;;;;;;2344326;57;21559;-63
2022/12/21 06:13:34;;;;;;;25.92;10.13;;;11.50;79.30;;;;;;2344215;57;21688;-56
2022/12/21 06:16:03;;;;;;;20.00;9.95;;;11.60;79.20;;;;;;2344474;57;21117;-54
2022/12/21 06:18:31;;;;;;;21.30;10.23;;;11.50;79.20;;;;;;2344572;57;21200;-55
2022/12/21 06:20:58;;;;;;;22.27;9.73;;;11.50;79.30;;;;;;2344199;57;21058;-59
2022/12/21 06:23:25;;;;;;;19.55;9.57;;;11.50;79.20;;;;;;2343624;57;21034;-56
2022/12/21 06:25:56;;;;;;;19.42;9.98;;;11.50;79.20;;;;;;2343580;57;21054;-58
2022/12/21 06:28:23;;;;;;;15.77;7.70;;;11.50;79.20;;;;;;2346043;57;21554;-56
2022/12/21 06:30:51;;;;;;;16.62;9.23;;;11.40;79.20;;;;;;2345588;57;21018;-56
2022/12/21 06:33:19;;;;;;;15.85;8.75;;;11.40;79.10;;;;;;2345767;57;21014;-56
2022/12/21 06:35:46;;;;;;;17.12;8.10;;;11.40;79.10;;;;;;2345747;57;21013;-57
2022/12/21 06:38:14;;;;;;;14.00;8.13;;;11.40;79.10;;;;;;2344886;57;21066;-54
2022/12/21 06:40:41;;;;;;;16.80;7.37;;;11.30;79.00;;;;;;2344483;57;21561;-56
2022/12/21 06:43:08;;;;;;;19.70;9.13;;;11.30;78.90;;;;;;2344063;57;21537;-57
2022/12/21 06:45:35;;;;;;;20.92;10.23;;;11.30;78.70;;;;;;2344438;57;21125;-53
2022/12/21 06:48:04;;;;;;;14.25;9.23;;;11.30;78.50;;;;;;2344235;57;21034;-58
2022/12/21 06:50:31;;;;;;;14.43;8.60;;;11.20;78.20;;;;;;2344890;57;21117;-53
2022/12/21 06:52:58;;;;;;;18.83;8.65;;;11.20;79.00;;;;;;2345094;57;21129;-54
2022/12/21 06:55:26;;;;;;;12.00;7.35;;;11.20;77.90;;;;;;2344766;57;22220;-57
2022/12/21 06:57:53;;;;;;;12.80;7.32;;;11.20;77.80;;;;;;2345074;57;21589;-59
2022/12/21 07:00:22;;;;;;;14.82;7.50;;;11.10;77.50;;;;;;2344352;57;21166;-58
2022/12/21 07:02:49;;;;;;;14.60;7.85;;;11.10;77.40;;;;;;2344585;57;21165;-53
2022/12/21 07:05:16;;;;;;;14.02;7.37;;;11.10;77.40;;;;;;2343783;57;22038;-60
2022/12/21 07:07:43;;;;;;;18.80;8.77;;;11.00;77.30;;;;;;2343312;57;22443;-59
2022/12/21 07:10:11;;;;;;;18.17;9.40;;;11.00;77.50;;;;;;2344197;57;21049;-58
2022/12/21 07:12:38;;;;;;;30.52;10.82;;;11.00;77.60;;;;;;2591528;53;21089;-59
2022/12/21 07:15:09;;;;;;;30.35;13.73;;;10.90;77.80;;;;;;2344161;57;21112;-55
2022/12/21 07:17:36;;;;;;;39.53;14.02;;;10.90;77.90;;;;;;2345479;57;21521;-55
2022/12/21 07:20:05;;;;;;;27.62;13.35;;;10.90;78.10;;;;;;2345746;57;21077;-58
2022/12/21 07:22:32;;;;;;;39.33;16.15;;;10.90;78.30;;;;;;2345703;57;21137;-57
2022/12/21 07:24:59;;;;;;;39.63;14.40;;;10.90;78.50;;;;;;2345899;57;21502;-58
2022/12/21 07:27:26;;;;;;;35.08;14.02;;;10.90;78.80;;;;;;2345219;57;21022;-58
2022/12/21 07:29:53;;;;;;;28.55;12.73;;;10.80;79.00;;;;;;2344710;57;21037;-59
2022/12/21 07:32:20;;;;;;;34.28;13.82;;;10.80;79.20;;;;;;2342377;57;21636;-56
2022/12/21 07:34:47;;;;;;;37.53;15.93;;;10.80;79.50;;;;;;2344209;57;21037;-57
2022/12/21 07:37:15;;;;;;;32.00;13.90;;;10.80;79.60;;;;;;2351909;53;21573;-55
2022/12/21 07:39:42;;;;;;;35.90;13.48;;;10.80;79.80;;;;;;2344469;57;21038;-58
2022/12/21 07:42:09;;;;;;;43.13;17.27;;;10.80;79.80;;;;;;2344841;57;21553;-53
2022/12/21 07:44:36;;;;;;;35.45;15.57;;;10.80;79.80;;;;;;2344581;57;21067;-58
2022/12/21 07:47:03;;;;;;;44.95;17.00;;;10.80;79.90;;;;;;2344779;57;21086;-55
2022/12/21 07:49:30;;;;;;;39.60;16.60;;;10.80;80.00;;;;;;2344175;57;21069;-58
2022/12/21 07:51:57;;;;;;;43.70;15.98;;;10.80;80.10;;;;;;2342453;57;21121;-58
2022/12/21 07:54:25;;;;;;;33.85;14.45;;;10.80;80.10;;;;;;2343281;57;21121;-56
2022/12/21 07:56:52;;;;;;;38.97;15.23;;;10.80;80.10;;;;;;2343700;57;21102;-56
2022/12/21 07:59:19;;;;;;;35.05;14.32;;;10.80;80.20;;;;;;2342921;57;21383;-56
2022/12/21 08:01:46;;;;;;;32.08;14.68;;;10.80;80.20;;;;;;2341101;57;21743;-58
2022/12/21 08:04:16;;;;;;;29.63;13.05;;;10.80;80.30;;;;;;2348173;53;21109;-57
2022/12/21 08:06:45;;;;;;;36.53;14.85;;;10.80;80.30;;;;;;2343349;57;21044;-59
2022/12/21 08:09:12;;;;;;;40.08;13.75;;;10.80;80.30;;;;;;2343793;57;21110;-53
2022/12/21 08:11:39;;;;;;;37.88;15.35;;;10.80;80.30;;;;;;2342440;57;21645;-56
2022/12/21 08:14:06;;;;;;;31.95;13.45;;;10.80;80.50;;;;;;2342026;57;22448;-54
2022/12/21 08:16:34;;;;;;;43.35;16.85;;;10.80;80.40;;;;;;2343064;57;21682;-54
2022/12/21 08:19:01;;;;;;;43.58;17.90;;;10.90;80.50;;;;;;2343609;57;21062;-56
2022/12/21 08:21:28;;;;;;;42.42;16.95;;;10.90;80.50;;;;;;2344027;57;21588;-58
2022/12/21 08:23:55;;;;;;;53.63;17.77;;;10.90;80.50;;;;;;2342639;57;21046;-57
2022/12/21 08:26:22;;;;;;;62.38;20.60;;;10.90;80.70;;;;;;2342427;57;21046;-57
2022/12/21 08:28:50;;;;;;;79.75;21.60;;;10.90;80.40;;;;;;2340082;57;21054;-56
2022/12/21 08:31:19;;;;;;;59.05;19.27;;;10.90;80.50;;;;;;2342558;57;21129;-60
2022/12/21 08:33:46;;;;;;;60.35;21.05;;;10.90;80.60;;;;;;2344464;57;21124;-59
2022/12/21 08:36:16;;;;;;;66.93;20.92;;;10.90;80.70;;;;;;2345089;57;21042;-59
2022/12/21 08:38:44;;;;;;;46.10;18.05;;;10.90;80.80;;;;;;2344542;57;21628;-55
2022/12/21 08:41:11;;;;;;;50.70;19.00;;;10.90;80.80;;;;;;2344442;57;21046;-60
2022/12/21 08:43:39;;;;;;;77.30;23.00;;;10.90;81.40;;;;;;2344413;57;21066;-56
2022/12/21 08:46:09;;;;;;;65.55;19.87;;;10.90;80.80;;;;;;2343623;57;21062;-55
2022/12/21 08:48:36;;;;;;;50.00;18.55;;;10.90;80.50;;;;;;2344790;57;21687;-60
2022/12/21 08:51:07;;;;;;;82.82;22.50;;;10.90;80.70;;;;;;2344743;57;21569;-59
2022/12/21 08:53:35;;;;;;;95.07;22.05;;;11.00;81.60;;;;;;2344470;57;21050;-58
2022/12/21 08:56:04;;;;;;;61.33;17.75;;;11.00;80.80;;;;;;2345811;57;21499;-54
2022/12/21 08:58:32;;;;;;;58.63;18.30;;;11.10;80.70;;;;;;2345965;57;21105;-56
2022/12/21 09:00:59;;;;;;;43.58;15.93;;;11.00;80.60;;;;;;2592849;53;21022;-56
2022/12/21 09:03:26;;;;;;;47.62;17.50;;;11.10;80.70;;;;;;2344428;57;21018;-55
2022/12/21 09:05:55;;;;;;;41.67;15.70;;;11.10;80.80;;;;;;2592796;53;21633;-53
2022/12/21 09:08:23;;;;;;;60.33;16.60;;;11.10;80.90;;;;;;2344570;57;21673;-56
2022/12/21 09:10:50;;;;;;;45.05;14.73;;;11.10;81.30;;;;;;2344710;57;21134;-58
2022/12/21 09:13:17;;;;;;;38.72;15.30;;;11.10;80.90;;;;;;2344607;57;21101;-60
2022/12/21 09:15:44;;;;;;;40.20;15.80;;;11.10;80.90;;;;;;2345012;57;21054;-58
2022/12/21 09:18:11;;;;;;;43.58;15.95;;;11.10;80.90;;;;;;2429062;53;21657;-57
2022/12/21 09:20:39;;;;;;;59.35;17.95;;;11.10;80.90;;;;;;2344120;57;21530;-58
2022/12/21 09:23:06;;;;;;;40.12;14.20;;;11.10;80.90;;;;;;2344935;57;21498;-56
2022/12/21 09:25:34;;;;;;;63.13;16.33;;;11.10;81.00;;;;;;2345143;57;21054;-59
2022/12/21 09:28:02;;;;;;;31.25;13.88;;;11.10;80.90;;;;;;2344849;57;21042;-58
2022/12/21 09:30:31;;;;;;;35.85;15.50;;;11.10;80.80;;;;;;2344909;57;21561;-58
2022/12/21 09:32:59;;;;;;;46.05;16.33;;;11.10;80.90;;;;;;2344049;57;21018;-60
2022/12/21 09:35:27;;;;;;;35.28;14.40;;;11.10;81.00;;;;;;2344012;57;22063;-58
2022/12/21 09:37:54;;;;;;;35.47;15.48;;;11.10;80.60;;;;;;2344015;57;21054;-56
2022/12/21 09:40:22;;;;;;;36.85;15.07;;;11.10;80.70;;;;;;2344453;57;21045;-59
2022/12/21 09:42:59;;;;;;;43.97;15.82;;;11.10;80.90;;;;;;2344236;57;21090;-57
2022/12/21 09:45:32;;;;;;;47.47;16.92;;;11.10;80.90;;;;;;2345928;57;21094;-55
2022/12/21 09:48:04;;;;;;;36.08;13.62;;;11.10;80.90;;;;;;2346202;57;21026;-54
2022/12/21 09:50:42;;;;;;;29.23;11.63;;;11.10;80.90;;;;;;2344412;57;21509;-57
2022/12/21 09:53:18;;;;;;;26.35;13.40;;;11.20;80.70;;;;;;2344876;57;21518;-58
2022/12/21 09:55:48;;;;;;;33.30;14.00;;;11.10;80.30;;;;;;2344776;57;21077;-56
2022/12/21 09:58:21;;;;;;;57.90;15.35;;;11.10;80.30;;;;;;2344170;57;21070;-57
2022/12/21 10:00:56;;;;;;;43.58;15.18;;;11.10;80.30;;;;;;2344134;57;21141;-58
2022/12/21 10:03:33;;;;;;;42.25;13.30;;;11.10;80.30;;;;;;2344218;57;21667;-56
2022/12/21 10:06:27;;;;;;;37.15;13.88;;;11.00;80.20;;;;;;2343430;57;21046;-58
2022/12/21 10:09:22;;;;;;;42.38;14.55;;;11.00;80.40;;;;;;2343684;57;21066;-55
2022/12/21 10:14:47;;;;;;;39.75;14.70;;;11.00;80.40;;;;;;2355569;57;22042;-57
2022/12/21 10:17:29;;;;;;;37.85;14.48;;;11.00;80.40;;;;;;2346877;57;21105;-59
2022/12/21 10:20:10;;;;;;;39.42;15.82;;;11.00;80.40;;;;;;2346002;57;21037;-57
2022/12/21 10:22:41;;;;;;;32.20;13.35;;;11.00;80.40;;;;;;2345835;57;21038;-57
2022/12/21 10:25:17;;;;;;;37.03;13.93;;;10.90;80.50;;;;;;2344229;57;21766;-58
2022/12/21 10:27:49;;;;;;;27.75;13.40;;;10.90;80.80;;;;;;2344695;57;21605;-59
2022/12/21 10:30:18;;;;;;;31.62;14.52;;;11.00;80.90;;;;;;2344589;57;21066;-60
2022/12/21 10:32:48;;;;;;;29.63;12.82;;;11.00;80.90;;;;;;2344599;57;21514;-59
2022/12/21 10:35:21;;;;;;;24.98;11.65;;;11.10;81.00;;;;;;2345849;57;21522;-61
2022/12/21 10:37:50;;;;;;;35.60;14.02;;;11.10;80.90;;;;;;2344724;57;21055;-59
2022/12/21 10:40:19;;;;;;;32.25;14.27;;;11.10;80.80;;;;;;2345265;57;21026;-58
2022/12/21 10:42:49;;;;;;;34.50;14.13;;;11.10;80.50;;;;;;2444635;52;21094;-60
2022/12/21 10:45:19;;;;;;;35.08;13.70;;;11.10;80.60;;;;;;2374051;56;21034;-60
2022/12/21 10:47:46;;;;;;;51.58;15.95;;;11.10;80.50;;;;;;2377290;56;21002;-61
2022/12/21 10:50:17;;;;;;;38.25;14.98;;;11.10;80.40;;;;;;2375451;56;21046;-58
2022/12/21 10:52:47;;;;;;;36.03;14.48;;;11.10;80.40;;;;;;2373785;56;21542;-60
2022/12/21 10:58:13;;;;;;;39.53;16.17;;;11.10;80.20;;;;;;2353214;57;22066;-57
2022/12/21 11:00:48;;;;;;;50.47;15.55;;;11.10;80.50;;;;;;2343790;57;21050;-60
2022/12/21 11:05:57;;;;;;;43.05;16.33;;;11.10;80.40;;;;;;2352049;57;22006;-58
2022/12/21 11:08:27;;;;;;;58.97;18.52;;;11.10;80.50;;;;;;2345828;57;21021;-58
2022/12/21 11:10:58;;;;;;;41.55;16.75;;;11.10;80.50;;;;;;2345968;56;21116;-58
2022/12/21 11:13:27;;;;;;;41.83;16.98;;;11.10;80.60;;;;;;2372070;56;21123;-60
2022/12/21 11:18:40;;;;;;;39.08;16.87;;;11.10;80.40;;;;;;2354949;57;22129;-59
2022/12/21 11:21:25;;;;;;;47.40;17.12;;;11.10;80.40;;;;;;2345286;57;21026;-60
2022/12/21 11:24:03;;;;;;;48.78;17.20;;;11.10;80.50;;;;;;2373454;53;21042;-59
2022/12/21 11:26:38;;;;;;;46.75;17.75;;;11.20;80.60;;;;;;2344199;57;21050;-58
2022/12/21 11:31:44;;;;;;;45.12;16.55;;;11.10;80.40;;;;;;2325177;57;22115;-58
2022/12/21 11:37:20;;;;;;;45.25;17.50;;;11.10;80.50;;;;;;2352872;57;22109;-57
2022/12/21 11:39:47;;;;;;;45.03;18.23;;;11.10;80.60;;;;;;2344466;57;21102;-58
2022/12/21 11:42:18;;;;;;;44.42;19.00;;;11.10;80.90;;;;;;2342481;57;21212;-58
2022/12/21 11:44:46;;;;;;;46.60;19.15;;;11.10;80.70;;;;;;2345407;57;21018;-61
2022/12/21 11:47:39;;;;;;;46.17;17.35;;;11.10;80.90;;;;;;2343314;57;21058;-60
2022/12/21 11:50:20;;;;;;;42.00;17.42;;;11.10;80.90;;;;;;2342895;57;21496;-59
2022/12/21 11:53:11;;;;;;;40.35;17.08;;;11.20;80.90;;;;;;2340933;57;22335;-60
2022/12/21 11:55:50;;;;;;;42.20;18.25;;;11.20;80.90;;;;;;2344525;57;21046;-58
2022/12/21 11:58:30;;;;;;;42.22;17.48;;;11.20;80.80;;;;;;2342470;57;21049;-59
2022/12/21 12:01:11;;;;;;;40.60;17.15;;;11.30;81.00;;;;;;2344809;57;21037;-60
2022/12/21 12:03:54;;;;;;;37.22;18.05;;;11.30;81.20;;;;;;2344484;57;21561;-61
2022/12/21 12:06:38;;;;;;;42.65;17.75;;;11.30;81.40;;;;;;2343513;57;22165;-58
2022/12/21 12:09:19;;;;;;;41.80;17.98;;;11.40;81.20;;;;;;2342820;57;21038;-58
2022/12/21 12:12:00;;;;;;;42.22;17.65;;;11.40;81.10;;;;;;2344497;57;21565;-57
2022/12/21 12:14:40;;;;;;;39.25;16.17;;;11.40;80.90;;;;;;2342772;57;21057;-58
2022/12/21 12:17:20;;;;;;;38.90;18.05;;;11.40;80.70;;;;;;2343030;57;21072;-58
2022/12/21 12:19:56;;;;;;;38.45;17.55;;;11.40;80.70;;;;;;2343746;57;21041;-59
2022/12/21 12:22:38;;;;;;;41.78;17.65;;;11.50;80.80;;;;;;2343367;57;21656;-59
2022/12/21 12:25:53;;;;;;;45.55;17.92;;;11.50;80.90;;;;;;2341067;57;21529;-57
2022/12/21 12:28:38;;;;;;;43.55;19.12;;;11.50;80.60;;;;;;2333749;57;21042;-57
2022/12/21 12:33:57;;;;;;;46.42;19.70;;;11.50;80.10;;;;;;2353503;57;22323;-58
2022/12/21 12:36:38;;;;;;;37.20;16.50;;;11.50;80.10;;;;;;2345372;57;21108;-56
2022/12/21 12:39:17;;;;;;;38.33;18.55;;;11.40;80.20;;;;;;2345722;57;21625;-57
2022/12/21 12:41:51;;;;;;;45.05;19.23;;;11.40;80.00;;;;;;2344199;57;21549;-58
2022/12/21 12:44:28;;;;;;;51.08;21.08;;;11.40;80.10;;;;;;2343346;57;21632;-59
2022/12/21 12:47:06;;;;;;;51.75;21.87;;;11.40;80.30;;;;;;2344074;57;22172;-56
2022/12/21 12:49:45;;;;;;;53.72;22.23;;;11.40;80.30;;;;;;2344302;57;21081;-59
2022/12/21 12:52:26;;;;;;;58.78;24.42;;;11.50;80.40;;;;;;2344729;57;21588;-60
2022/12/21 12:55:02;;;;;;;46.33;21.02;;;11.50;80.40;;;;;;2344303;57;21564;-59
2022/12/21 12:57:37;;;;;;;46.95;19.70;;;11.50;80.30;;;;;;2348816;53;21046;-57
2022/12/21 13:00:08;;;;;;;45.60;19.87;;;11.50;80.30;;;;;;2344397;57;21604;-60
2022/12/21 13:02:44;;;;;;;46.17;18.92;;;11.50;80.30;;;;;;2344178;57;21079;-56
2022/12/21 13:05:25;;;;;;;38.33;17.50;;;11.50;80.30;;;;;;2344296;57;21522;-57
2022/12/21 13:08:04;;;;;;;46.33;20.23;;;11.50;80.00;;;;;;2344226;57;21605;-57
2022/12/21 13:10:41;;;;;;;39.45;17.90;;;11.50;80.00;;;;;;2366365;53;21620;-57
2022/12/21 13:13:14;;;;;;;37.83;18.15;;;11.40;79.60;;;;;;2343831;57;21046;-58
2022/12/21 13:15:49;;;;;;;45.85;18.83;;;11.40;79.50;;;;;;2345755;57;21064;-61
2022/12/21 13:18:20;;;;;;;42.72;18.15;;;11.40;79.60;;;;;;2345106;57;21522;-58
2022/12/21 13:20:50;;;;;;;37.72;17.08;;;11.40;79.50;;;;;;2345243;57;21026;-58
2022/12/21 13:23:25;;;;;;;41.47;18.08;;;11.40;79.30;;;;;;2345006;57;21089;-60
2022/12/21 13:25:56;;;;;;;40.47;17.15;;;11.40;79.10;;;;;;2345122;57;21018;-59
2022/12/21 13:28:29;;;;;;;36.05;16.40;;;11.40;78.70;;;;;;2345862;57;21006;-58
2022/12/21 13:31:01;;;;;;;32.40;15.48;;;11.40;78.70;;;;;;2344348;57;21057;-54